sensor_id;sensor_type;location;lat;lon;timestamp;P1;durP1;ratioP1;P2;durP2;ratioP2
40731;SDS011;26420;52.256;9.096;2023-11-19T00:03:44;1.55;;;1.15;;
40731;SDS011;26420;52.256;9.096;2023-11-19T00:08:45;1.73;;;1.30;;
40731;SDS011;26420;52.256;9.096;2023-11-19T00:13:47;1.20;;;1.10;;
40731;SDS011;26420;52.256;9.096;2023-11-19T00:18:49;1.40;;;1.10;;
40731;SDS011;26420;52.256;9.096;2023-11-19T00:23:51;2.17;;;1.42;;
40731;SDS011;26420;52.256;9.096;2023-11-19T00:28:53;2.35;;;1.38;;
40731;SDS011;26420;52.256;9.096;2023-11-19T00:33:55;1.38;;;1.27;;
40731;SDS011;26420;52.256;9.096;2023-11-19T00:38:57;1.92;;;1.35;;
40731;SDS011;26420;52.256;9.096;2023-11-19T00:43:59;2.00;;;1.40;;
40731;SDS011;26420;52.256;9.096;2023-11-19T00:49:01;1.92;;;1.27;;
40731;SDS011;26420;52.256;9.096;2023-11-19T00:54:03;1.35;;;1.25;;
40731;SDS011;26420;52.256;9.096;2023-11-19T00:59:05;3.00;;;1.73;;
40731;SDS011;26420;52.256;9.096;2023-11-19T01:04:06;1.60;;;1.40;;
40731;SDS011;26420;52.256;9.096;2023-11-19T01:09:10;1.30;;;1.20;;
40731;SDS011;26420;52.256;9.096;2023-11-19T01:14:12;1.70;;;1.20;;
40731;SDS011;26420;52.256;9.096;2023-11-19T01:19:14;1.30;;;1.20;;
40731;SDS011;26420;52.256;9.096;2023-11-19T01:24:18;1.30;;;1.05;;
40731;SDS011;26420;52.256;9.096;2023-11-19T01:29:20;0.90;;;0.90;;
40731;SDS011;26420;52.256;9.096;2023-11-19T01:34:22;1.92;;;0.63;;
40731;SDS011;26420;52.256;9.096;2023-11-19T01:39:24;0.77;;;0.77;;
40731;SDS011;26420;52.256;9.096;2023-11-19T01:44:26;0.90;;;0.77;;
40731;SDS011;26420;52.256;9.096;2023-11-19T01:49:28;0.77;;;0.65;;
40731;SDS011;26420;52.256;9.096;2023-11-19T01:54:31;0.45;;;0.45;;
40731;SDS011;26420;52.256;9.096;2023-11-19T01:59:34;0.88;;;0.88;;
40731;SDS011;26420;52.256;9.096;2023-11-19T02:04:36;0.47;;;0.47;;
40731;SDS011;26420;52.256;9.096;2023-11-19T02:09:42;0.77;;;0.77;;
40731;SDS011;26420;52.256;9.096;2023-11-19T02:14:44;0.68;;;0.68;;
40731;SDS011;26420;52.256;9.096;2023-11-19T02:19:47;1.45;;;1.35;;
40731;SDS011;26420;52.256;9.096;2023-11-19T02:24:51;1.45;;;1.23;;
40731;SDS011;26420;52.256;9.096;2023-11-19T02:29:59;1.80;;;1.60;;
40731;SDS011;26420;52.256;9.096;2023-11-19T02:35:02;1.58;;;1.42;;
40731;SDS011;26420;52.256;9.096;2023-11-19T02:40:07;1.92;;;1.80;;
40731;SDS011;26420;52.256;9.096;2023-11-19T02:45:10;1.92;;;1.48;;
40731;SDS011;26420;52.256;9.096;2023-11-19T02:50:17;3.53;;;2.08;;
40731;SDS011;26420;52.256;9.096;2023-11-19T02:55:26;2.33;;;1.80;;
40731;SDS011;26420;52.256;9.096;2023-11-19T03:00:31;1.92;;;1.80;;
40731;SDS011;26420;52.256;9.096;2023-11-19T03:05:37;2.40;;;1.92;;
40731;SDS011;26420;52.256;9.096;2023-11-19T03:10:41;1.90;;;1.77;;
40731;SDS011;26420;52.256;9.096;2023-11-19T03:15:44;2.75;;;1.90;;
40731;SDS011;26420;52.256;9.096;2023-11-19T03:20:47;4.63;;;2.58;;
40731;SDS011;26420;52.256;9.096;2023-11-19T03:25:51;3.33;;;2.83;;
40731;SDS011;26420;52.256;9.096;2023-11-19T03:30:53;4.95;;;3.00;;
40731;SDS011;26420;52.256;9.096;2023-11-19T03:35:58;4.38;;;3.53;;
40731;SDS011;26420;52.256;9.096;2023-11-19T03:41:00;4.93;;;3.50;;
40731;SDS011;26420;52.256;9.096;2023-11-19T03:46:02;5.25;;;3.75;;
40731;SDS011;26420;52.256;9.096;2023-11-19T03:51:06;8.23;;;5.18;;
40731;SDS011;26420;52.256;9.096;2023-11-19T03:56:08;7.22;;;5.30;;
40731;SDS011;26420;52.256;9.096;2023-11-19T04:01:12;11.07;;;6.13;;
40731;SDS011;26420;52.256;9.096;2023-11-19T04:06:15;14.52;;;6.20;;
40731;SDS011;26420;52.256;9.096;2023-11-19T04:11:17;7.22;;;5.32;;
40731;SDS011;26420;52.256;9.096;2023-11-19T04:16:19;12.20;;;6.60;;
40731;SDS011;26420;52.256;9.096;2023-11-19T04:21:26;12.15;;;7.28;;
40731;SDS011;26420;52.256;9.096;2023-11-19T04:26:29;14.20;;;6.88;;
40731;SDS011;26420;52.256;9.096;2023-11-19T04:31:32;14.73;;;6.40;;
40731;SDS011;26420;52.256;9.096;2023-11-19T04:36:34;9.50;;;6.60;;
40731;SDS011;26420;52.256;9.096;2023-11-19T04:41:51;8.60;;;5.63;;
40731;SDS011;26420;52.256;9.096;2023-11-19T04:51:58;12.50;;;6.55;;
40731;SDS011;26420;52.256;9.096;2023-11-19T04:57:00;13.48;;;6.45;;
40731;SDS011;26420;52.256;9.096;2023-11-19T05:02:03;8.35;;;6.35;;
40731;SDS011;26420;52.256;9.096;2023-11-19T05:07:05;12.90;;;7.22;;
40731;SDS011;26420;52.256;9.096;2023-11-19T05:12:08;9.30;;;5.93;;
40731;SDS011;26420;52.256;9.096;2023-11-19T05:17:13;9.40;;;6.22;;
40731;SDS011;26420;52.256;9.096;2023-11-19T05:22:17;10.43;;;5.97;;
40731;SDS011;26420;52.256;9.096;2023-11-19T05:27:19;8.93;;;5.93;;
40731;SDS011;26420;52.256;9.096;2023-11-19T05:32:21;9.57;;;6.28;;
40731;SDS011;26420;52.256;9.096;2023-11-19T05:37:23;15.73;;;6.28;;
40731;SDS011;26420;52.256;9.096;2023-11-19T05:42:27;11.00;;;5.63;;
40731;SDS011;26420;52.256;9.096;2023-11-19T05:47:29;7.38;;;4.90;;
40731;SDS011;26420;52.256;9.096;2023-11-19T05:52:31;8.20;;;5.05;;
40731;SDS011;26420;52.256;9.096;2023-11-19T05:57:35;11.35;;;4.57;;
40731;SDS011;26420;52.256;9.096;2023-11-19T06:02:47;5.13;;;3.40;;
40731;SDS011;26420;52.256;9.096;2023-11-19T06:07:49;9.18;;;4.07;;
40731;SDS011;26420;52.256;9.096;2023-11-19T06:12:52;9.63;;;3.35;;
40731;SDS011;26420;52.256;9.096;2023-11-19T06:17:57;8.20;;;2.85;;
40731;SDS011;26420;52.256;9.096;2023-11-19T06:23:00;8.38;;;2.88;;
40731;SDS011;26420;52.256;9.096;2023-11-19T06:28:03;9.32;;;3.00;;
40731;SDS011;26420;52.256;9.096;2023-11-19T06:33:05;6.60;;;2.35;;
40731;SDS011;26420;52.256;9.096;2023-11-19T06:38:08;6.88;;;3.20;;
40731;SDS011;26420;52.256;9.096;2023-11-19T06:43:11;11.68;;;2.28;;
40731;SDS011;26420;52.256;9.096;2023-11-19T06:48:13;6.40;;;2.30;;
40731;SDS011;26420;52.256;9.096;2023-11-19T06:53:15;13.18;;;2.78;;
40731;SDS011;26420;52.256;9.096;2023-11-19T06:58:17;10.93;;;3.08;;
40731;SDS011;26420;52.256;9.096;2023-11-19T07:03:20;13.50;;;2.83;;
40731;SDS011;26420;52.256;9.096;2023-11-19T07:08:22;9.52;;;2.60;;
40731;SDS011;26420;52.256;9.096;2023-11-19T07:13:25;11.68;;;3.38;;
40731;SDS011;26420;52.256;9.096;2023-11-19T07:18:29;6.50;;;2.83;;
40731;SDS011;26420;52.256;9.096;2023-11-19T07:23:32;6.95;;;2.17;;
40731;SDS011;26420;52.256;9.096;2023-11-19T07:28:35;14.35;;;2.80;;
40731;SDS011;26420;52.256;9.096;2023-11-19T07:33:37;9.30;;;3.00;;
40731;SDS011;26420;52.256;9.096;2023-11-19T07:38:45;13.88;;;2.95;;
40731;SDS011;26420;52.256;9.096;2023-11-19T07:43:47;11.93;;;2.58;;
40731;SDS011;26420;52.256;9.096;2023-11-19T07:48:51;5.38;;;1.90;;
40731;SDS011;26420;52.256;9.096;2023-11-19T07:53:54;14.40;;;2.78;;
40731;SDS011;26420;52.256;9.096;2023-11-19T07:58:56;20.75;;;3.85;;
40731;SDS011;26420;52.256;9.096;2023-11-19T08:03:58;11.10;;;2.53;;
40731;SDS011;26420;52.256;9.096;2023-11-19T08:09:00;10.48;;;2.17;;
40731;SDS011;26420;52.256;9.096;2023-11-19T08:14:03;7.03;;;2.58;;
40731;SDS011;26420;52.256;9.096;2023-11-19T08:19:05;19.42;;;3.22;;
40731;SDS011;26420;52.256;9.096;2023-11-19T08:24:07;5.13;;;2.50;;
40731;SDS011;26420;52.256;9.096;2023-11-19T08:29:09;14.07;;;3.60;;
40731;SDS011;26420;52.256;9.096;2023-11-19T08:34:12;10.73;;;3.22;;
40731;SDS011;26420;52.256;9.096;2023-11-19T08:39:14;10.52;;;2.88;;
40731;SDS011;26420;52.256;9.096;2023-11-19T08:44:16;13.93;;;2.92;;
40731;SDS011;26420;52.256;9.096;2023-11-19T08:49:20;19.13;;;3.67;;
40731;SDS011;26420;52.256;9.096;2023-11-19T08:54:23;8.77;;;3.03;;
40731;SDS011;26420;52.256;9.096;2023-11-19T08:59:25;14.60;;;3.40;;
40731;SDS011;26420;52.256;9.096;2023-11-19T09:04:27;14.38;;;3.08;;
40731;SDS011;26420;52.256;9.096;2023-11-19T09:09:30;10.20;;;3.13;;
40731;SDS011;26420;52.256;9.096;2023-11-19T09:14:32;13.63;;;3.08;;
40731;SDS011;26420;52.256;9.096;2023-11-19T09:19:35;6.82;;;2.70;;
40731;SDS011;26420;52.256;9.096;2023-11-19T09:24:37;8.48;;;2.80;;
40731;SDS011;26420;52.256;9.096;2023-11-19T09:29:39;11.15;;;3.13;;
40731;SDS011;26420;52.256;9.096;2023-11-19T09:34:42;8.75;;;2.53;;
40731;SDS011;26420;52.256;9.096;2023-11-19T09:39:44;14.23;;;2.22;;
40731;SDS011;26420;52.256;9.096;2023-11-19T09:44:47;15.25;;;3.03;;
40731;SDS011;26420;52.256;9.096;2023-11-19T09:49:49;7.05;;;2.17;;
40731;SDS011;26420;52.256;9.096;2023-11-19T09:54:52;8.85;;;2.67;;
40731;SDS011;26420;52.256;9.096;2023-11-19T09:59:54;11.25;;;2.88;;
40731;SDS011;26420;52.256;9.096;2023-11-19T10:04:56;9.43;;;2.75;;
40731;SDS011;26420;52.256;9.096;2023-11-19T10:10:03;14.23;;;2.88;;
40731;SDS011;26420;52.256;9.096;2023-11-19T10:15:06;14.07;;;3.13;;
40731;SDS011;26420;52.256;9.096;2023-11-19T10:25:25;6.85;;;3.05;;
40731;SDS011;26420;52.256;9.096;2023-11-19T10:30:29;14.32;;;3.03;;
40731;SDS011;26420;52.256;9.096;2023-11-19T10:35:35;18.75;;;3.10;;
40731;SDS011;26420;52.256;9.096;2023-11-19T10:41:01;9.00;;;3.13;;
40731;SDS011;26420;52.256;9.096;2023-11-19T10:46:08;8.35;;;3.40;;
40731;SDS011;26420;52.256;9.096;2023-11-19T10:51:12;16.45;;;3.25;;
40731;SDS011;26420;52.256;9.096;2023-11-19T10:56:17;14.80;;;3.60;;
40731;SDS011;26420;52.256;9.096;2023-11-19T11:01:21;7.45;;;2.90;;
40731;SDS011;26420;52.256;9.096;2023-11-19T11:06:27;10.07;;;3.17;;
40731;SDS011;26420;52.256;9.096;2023-11-19T11:11:29;11.50;;;2.70;;
40731;SDS011;26420;52.256;9.096;2023-11-19T11:16:32;15.00;;;3.83;;
40731;SDS011;26420;52.256;9.096;2023-11-19T11:21:34;9.38;;;3.53;;
40731;SDS011;26420;52.256;9.096;2023-11-19T11:37:24;10.43;;;2.47;;
40731;SDS011;26420;52.256;9.096;2023-11-19T11:42:41;10.13;;;2.15;;
40731;SDS011;26420;52.256;9.096;2023-11-19T11:58:00;10.90;;;3.00;;
40731;SDS011;26420;52.256;9.096;2023-11-19T12:03:04;14.23;;;3.22;;
40731;SDS011;26420;52.256;9.096;2023-11-19T12:08:10;10.13;;;3.10;;
40731;SDS011;26420;52.256;9.096;2023-11-19T12:13:13;9.38;;;2.28;;
40731;SDS011;26420;52.256;9.096;2023-11-19T12:18:16;17.45;;;3.88;;
40731;SDS011;26420;52.256;9.096;2023-11-19T12:23:21;11.82;;;2.95;;
40731;SDS011;26420;52.256;9.096;2023-11-19T12:28:24;12.25;;;3.28;;
40731;SDS011;26420;52.256;9.096;2023-11-19T12:33:28;14.75;;;2.50;;
40731;SDS011;26420;52.256;9.096;2023-11-19T12:38:32;13.10;;;2.60;;
40731;SDS011;26420;52.256;9.096;2023-11-19T12:43:34;17.20;;;3.20;;
40731;SDS011;26420;52.256;9.096;2023-11-19T12:48:41;11.25;;;2.80;;
40731;SDS011;26420;52.256;9.096;2023-11-19T12:53:47;19.50;;;3.67;;
40731;SDS011;26420;52.256;9.096;2023-11-19T12:58:51;11.82;;;2.17;;
40731;SDS011;26420;52.256;9.096;2023-11-19T13:03:54;8.80;;;2.50;;
40731;SDS011;26420;52.256;9.096;2023-11-19T13:08:56;10.55;;;3.03;;
40731;SDS011;26420;52.256;9.096;2023-11-19T13:14:00;18.02;;;3.03;;
40731;SDS011;26420;52.256;9.096;2023-11-19T13:19:06;14.02;;;2.72;;
40731;SDS011;26420;52.256;9.096;2023-11-19T13:24:09;6.80;;;2.22;;
40731;SDS011;26420;52.256;9.096;2023-11-19T13:29:12;7.90;;;2.63;;
40731;SDS011;26420;52.256;9.096;2023-11-19T13:34:14;17.35;;;2.88;;
40731;SDS011;26420;52.256;9.096;2023-11-19T13:39:16;10.13;;;2.75;;
40731;SDS011;26420;52.256;9.096;2023-11-19T13:44:24;7.15;;;2.47;;
40731;SDS011;26420;52.256;9.096;2023-11-19T13:49:26;9.57;;;2.72;;
40731;SDS011;26420;52.256;9.096;2023-11-19T13:54:29;11.80;;;2.78;;
40731;SDS011;26420;52.256;9.096;2023-11-19T13:59:32;10.18;;;2.75;;
40731;SDS011;26420;52.256;9.096;2023-11-19T14:04:34;10.95;;;2.83;;
40731;SDS011;26420;52.256;9.096;2023-11-19T14:09:36;11.98;;;3.10;;
40731;SDS011;26420;52.256;9.096;2023-11-19T14:14:39;7.05;;;2.17;;
40731;SDS011;26420;52.256;9.096;2023-11-19T14:19:41;12.50;;;2.85;;
40731;SDS011;26420;52.256;9.096;2023-11-19T14:24:44;11.05;;;2.05;;
40731;SDS011;26420;52.256;9.096;2023-11-19T14:29:46;6.57;;;2.42;;
40731;SDS011;26420;52.256;9.096;2023-11-19T14:34:48;9.60;;;2.92;;
40731;SDS011;26420;52.256;9.096;2023-11-19T14:39:50;11.15;;;2.65;;
40731;SDS011;26420;52.256;9.096;2023-11-19T14:44:52;11.77;;;2.22;;
40731;SDS011;26420;52.256;9.096;2023-11-19T14:49:55;5.07;;;2.30;;
40731;SDS011;26420;52.256;9.096;2023-11-19T14:54:57;12.10;;;2.88;;
40731;SDS011;26420;52.256;9.096;2023-11-19T14:59:59;9.90;;;2.60;;
40731;SDS011;26420;52.256;9.096;2023-11-19T15:05:02;9.20;;;2.25;;
40731;SDS011;26420;52.256;9.096;2023-11-19T15:10:04;13.40;;;2.22;;
40731;SDS011;26420;52.256;9.096;2023-11-19T15:15:11;8.27;;;2.75;;
40731;SDS011;26420;52.256;9.096;2023-11-19T15:20:15;6.53;;;2.20;;
40731;SDS011;26420;52.256;9.096;2023-11-19T15:25:19;9.57;;;2.53;;
40731;SDS011;26420;52.256;9.096;2023-11-19T15:30:21;6.70;;;2.60;;
40731;SDS011;26420;52.256;9.096;2023-11-19T15:35:23;12.63;;;2.95;;
40731;SDS011;26420;52.256;9.096;2023-11-19T15:40:26;11.52;;;2.58;;
40731;SDS011;26420;52.256;9.096;2023-11-19T15:45:28;12.68;;;2.85;;
40731;SDS011;26420;52.256;9.096;2023-11-19T15:50:30;6.43;;;2.25;;
40731;SDS011;26420;52.256;9.096;2023-11-19T15:55:33;9.00;;;2.30;;
40731;SDS011;26420;52.256;9.096;2023-11-19T16:00:36;12.10;;;2.10;;
40731;SDS011;26420;52.256;9.096;2023-11-19T16:05:38;9.82;;;2.17;;
40731;SDS011;26420;52.256;9.096;2023-11-19T16:10:40;6.45;;;2.10;;
40731;SDS011;26420;52.256;9.096;2023-11-19T16:15:47;5.70;;;2.20;;
40731;SDS011;26420;52.256;9.096;2023-11-19T16:20:49;8.90;;;2.38;;
40731;SDS011;26420;52.256;9.096;2023-11-19T16:25:51;9.55;;;2.00;;
40731;SDS011;26420;52.256;9.096;2023-11-19T16:30:54;10.60;;;2.15;;
40731;SDS011;26420;52.256;9.096;2023-11-19T16:35:56;8.60;;;2.60;;
40731;SDS011;26420;52.256;9.096;2023-11-19T16:40:58;13.32;;;2.50;;
40731;SDS011;26420;52.256;9.096;2023-11-19T16:46:01;7.28;;;2.10;;
40731;SDS011;26420;52.256;9.096;2023-11-19T16:51:08;10.18;;;2.58;;
40731;SDS011;26420;52.256;9.096;2023-11-19T16:56:15;4.35;;;1.67;;
40731;SDS011;26420;52.256;9.096;2023-11-19T17:01:18;4.75;;;1.80;;
40731;SDS011;26420;52.256;9.096;2023-11-19T17:06:20;6.65;;;2.08;;
40731;SDS011;26420;52.256;9.096;2023-11-19T17:11:23;11.45;;;2.03;;
40731;SDS011;26420;52.256;9.096;2023-11-19T17:16:25;5.85;;;1.65;;
40731;SDS011;26420;52.256;9.096;2023-11-19T17:21:27;8.55;;;2.88;;
40731;SDS011;26420;52.256;9.096;2023-11-19T17:26:30;8.27;;;2.47;;
40731;SDS011;26420;52.256;9.096;2023-11-19T17:31:35;6.75;;;2.45;;
40731;SDS011;26420;52.256;9.096;2023-11-19T17:36:37;9.95;;;2.95;;
40731;SDS011;26420;52.256;9.096;2023-11-19T17:41:39;13.18;;;3.00;;
40731;SDS011;26420;52.256;9.096;2023-11-19T17:46:42;13.50;;;2.78;;
40731;SDS011;26420;52.256;9.096;2023-11-19T17:51:44;5.47;;;2.33;;
40731;SDS011;26420;52.256;9.096;2023-11-19T17:56:46;6.75;;;2.20;;
40731;SDS011;26420;52.256;9.096;2023-11-19T18:01:48;6.18;;;2.45;;
40731;SDS011;26420;52.256;9.096;2023-11-19T18:07:00;9.20;;;2.30;;
40731;SDS011;26420;52.256;9.096;2023-11-19T18:12:03;11.50;;;2.58;;
40731;SDS011;26420;52.256;9.096;2023-11-19T18:17:12;5.65;;;3.00;;
40731;SDS011;26420;52.256;9.096;2023-11-19T18:22:14;6.88;;;2.70;;
40731;SDS011;26420;52.256;9.096;2023-11-19T18:27:16;9.68;;;2.55;;
40731;SDS011;26420;52.256;9.096;2023-11-19T18:32:20;9.65;;;2.50;;
40731;SDS011;26420;52.256;9.096;2023-11-19T18:37:22;3.95;;;1.33;;
40731;SDS011;26420;52.256;9.096;2023-11-19T18:42:28;6.07;;;1.90;;
40731;SDS011;26420;52.256;9.096;2023-11-19T18:47:31;2.35;;;1.40;;
40731;SDS011;26420;52.256;9.096;2023-11-19T18:52:34;6.03;;;2.38;;
40731;SDS011;26420;52.256;9.096;2023-11-19T18:57:36;5.38;;;2.55;;
40731;SDS011;26420;52.256;9.096;2023-11-19T19:02:39;7.05;;;2.67;;
40731;SDS011;26420;52.256;9.096;2023-11-19T19:07:45;4.28;;;2.72;;
40731;SDS011;26420;52.256;9.096;2023-11-19T19:12:47;8.50;;;2.63;;
40731;SDS011;26420;52.256;9.096;2023-11-19T19:17:50;6.15;;;2.13;;
40731;SDS011;26420;52.256;9.096;2023-11-19T19:22:53;8.40;;;3.70;;
40731;SDS011;26420;52.256;9.096;2023-11-19T19:27:55;9.80;;;2.17;;
40731;SDS011;26420;52.256;9.096;2023-11-19T19:33:18;7.25;;;2.42;;
40731;SDS011;26420;52.256;9.096;2023-11-19T19:38:20;5.50;;;2.90;;
40731;SDS011;26420;52.256;9.096;2023-11-19T19:43:22;11.85;;;3.70;;
40731;SDS011;26420;52.256;9.096;2023-11-19T19:48:25;7.57;;;3.30;;
40731;SDS011;26420;52.256;9.096;2023-11-19T19:53:27;9.65;;;3.20;;
40731;SDS011;26420;52.256;9.096;2023-11-19T19:58:29;11.00;;;3.00;;
40731;SDS011;26420;52.256;9.096;2023-11-19T20:03:34;9.63;;;2.92;;
40731;SDS011;26420;52.256;9.096;2023-11-19T20:08:39;6.05;;;3.08;;
40731;SDS011;26420;52.256;9.096;2023-11-19T20:13:42;7.80;;;2.03;;
40731;SDS011;26420;52.256;9.096;2023-11-19T20:18:44;5.63;;;2.05;;
40731;SDS011;26420;52.256;9.096;2023-11-19T20:23:46;5.35;;;2.55;;
40731;SDS011;26420;52.256;9.096;2023-11-19T20:28:48;3.28;;;2.03;;
40731;SDS011;26420;52.256;9.096;2023-11-19T20:34:09;4.07;;;2.25;;
40731;SDS011;26420;52.256;9.096;2023-11-19T20:39:12;6.28;;;2.13;;
40731;SDS011;26420;52.256;9.096;2023-11-19T20:44:15;26.13;;;7.63;;
40731;SDS011;26420;52.256;9.096;2023-11-19T20:49:17;5.80;;;2.47;;
40731;SDS011;26420;52.256;9.096;2023-11-19T20:54:22;1.52;;;1.30;;
40731;SDS011;26420;52.256;9.096;2023-11-19T20:59:27;3.72;;;1.88;;
40731;SDS011;26420;52.256;9.096;2023-11-19T21:04:29;2.20;;;1.75;;
40731;SDS011;26420;52.256;9.096;2023-11-19T21:09:32;2.65;;;1.50;;
40731;SDS011;26420;52.256;9.096;2023-11-19T21:14:34;5.35;;;1.75;;
40731;SDS011;26420;52.256;9.096;2023-11-19T21:19:36;1.85;;;1.38;;
40731;SDS011;26420;52.256;9.096;2023-11-19T21:24:42;4.20;;;2.08;;
40731;SDS011;26420;52.256;9.096;2023-11-19T21:29:44;5.70;;;2.30;;
40731;SDS011;26420;52.256;9.096;2023-11-19T21:34:48;3.65;;;1.73;;
40731;SDS011;26420;52.256;9.096;2023-11-19T21:39:50;3.25;;;2.15;;
40731;SDS011;26420;52.256;9.096;2023-11-19T21:44:52;2.03;;;1.80;;
40731;SDS011;26420;52.256;9.096;2023-11-19T21:49:54;2.58;;;1.83;;
40731;SDS011;26420;52.256;9.096;2023-11-19T21:54:57;3.30;;;1.98;;
40731;SDS011;26420;52.256;9.096;2023-11-19T21:59:59;5.60;;;1.98;;
40731;SDS011;26420;52.256;9.096;2023-11-19T22:05:04;1.70;;;1.42;;
40731;SDS011;26420;52.256;9.096;2023-11-19T22:10:10;4.55;;;1.83;;
40731;SDS011;26420;52.256;9.096;2023-11-19T22:15:14;1.17;;;1.10;;
40731;SDS011;26420;52.256;9.096;2023-11-19T22:20:16;1.70;;;1.10;;
40731;SDS011;26420;52.256;9.096;2023-11-19T22:25:21;2.88;;;0.90;;
40731;SDS011;26420;52.256;9.096;2023-11-19T22:30:26;1.00;;;0.90;;
40731;SDS011;26420;52.256;9.096;2023-11-19T22:35:28;2.55;;;1.27;;
40731;SDS011;26420;52.256;9.096;2023-11-19T22:40:30;1.55;;;1.20;;
40731;SDS011;26420;52.256;9.096;2023-11-19T22:45:32;1.70;;;1.13;;
40731;SDS011;26420;52.256;9.096;2023-11-19T22:50:35;2.50;;;1.08;;
40731;SDS011;26420;52.256;9.096;2023-11-19T22:55:37;2.17;;;1.10;;
40731;SDS011;26420;52.256;9.096;2023-11-19T23:00:39;2.67;;;1.10;;
40731;SDS011;26420;52.256;9.096;2023-11-19T23:05:41;1.48;;;0.90;;
40731;SDS011;26420;52.256;9.096;2023-11-19T23:10:44;3.65;;;0.70;;
40731;SDS011;26420;52.256;9.096;2023-11-19T23:15:46;1.85;;;1.10;;
40731;SDS011;26420;52.256;9.096;2023-11-19T23:20:49;1.35;;;1.00;;
40731;SDS011;26420;52.256;9.096;2023-11-19T23:25:51;15.80;;;1.23;;
40731;SDS011;26420;52.256;9.096;2023-11-19T23:30:53;0.73;;;0.73;;
40731;SDS011;26420;52.256;9.096;2023-11-19T23:35:55;0.90;;;0.90;;
40731;SDS011;26420;52.256;9.096;2023-11-19T23:40:58;2.20;;;1.45;;
40731;SDS011;26420;52.256;9.096;2023-11-19T23:46:01;0.70;;;0.70;;
40731;SDS011;26420;52.256;9.096;2023-11-19T23:51:04;0.77;;;0.77;;
40731;SDS011;26420;52.256;9.096;2023-11-19T23:56:07;0.50;;;0.50;;
